createdAt,value
2019-01-10T00:01:51.459Z,7.00
2019-01-10T00:04:19.269Z,7.00
2019-01-10T00:06:47.719Z,7.00
2019-01-10T00:09:15.164Z,6.90
2019-01-10T00:11:42.292Z,7.00
2019-01-10T00:14:09.721Z,7.10
2019-01-10T00:16:37.448Z,6.90
2019-01-10T00:19:04.688Z,7.00
2019-01-10T00:21:32.021Z,7.00
2019-01-10T00:23:59.874Z,6.90
2019-01-10T00:26:27.510Z,6.90
2019-01-10T00:28:54.984Z,6.90
2019-01-10T00:31:23.003Z,6.90
2019-01-10T00:33:50.557Z,7.00
2019-01-10T00:36:19.861Z,7.00
2019-01-10T00:38:48.986Z,7.00
2019-01-10T00:41:16.156Z,7.00
2019-01-10T00:43:43.947Z,6.90
2019-01-10T00:46:12.092Z,6.90
2019-01-10T00:48:40.738Z,6.90
2019-01-10T00:51:08.199Z,7.00
2019-01-10T00:53:35.604Z,7.00
2019-01-10T00:56:03.731Z,7.00
2019-01-10T00:58:31.784Z,6.90
2019-01-10T01:00:58.860Z,7.00
2019-01-10T01:03:26.879Z,6.90
2019-01-10T01:05:55.797Z,6.90
2019-01-10T01:08:22.899Z,6.90
2019-01-10T01:10:50.306Z,7.00
2019-01-10T01:13:17.998Z,7.00
2019-01-10T01:15:46.387Z,7.00
2019-01-10T01:18:14.213Z,7.00
2019-01-10T01:20:41.885Z,6.90
2019-01-10T01:23:10.099Z,7.00
2019-01-10T01:25:37.389Z,7.00
2019-01-10T01:28:05.258Z,7.00
2019-01-10T01:30:33.016Z,6.90
2019-01-10T01:33:00.111Z,7.00
2019-01-10T01:35:27.123Z,7.00
2019-01-10T01:37:54.975Z,7.00
2019-01-10T01:40:22.392Z,6.90
2019-01-10T01:42:51.704Z,6.90
2019-01-10T01:45:19.791Z,6.90
2019-01-10T01:47:47.215Z,6.90
2019-01-10T01:50:17.479Z,6.90
2019-01-10T01:52:46.299Z,6.90
2019-01-10T01:55:13.507Z,6.90
2019-01-10T01:57:41.923Z,6.90
2019-01-10T02:00:12.406Z,6.90
2019-01-10T02:02:39.546Z,6.90
2019-01-10T02:05:08.527Z,6.90
2019-01-10T02:07:36.179Z,7.00
2019-01-10T02:10:05.872Z,7.00
2019-01-10T02:12:33.216Z,6.90
2019-01-10T02:15:00.869Z,6.90
2019-01-10T02:17:28.569Z,6.90
2019-01-10T02:19:56.147Z,6.90
2019-01-10T02:22:24.001Z,6.90
2019-01-10T02:24:51.699Z,6.90
2019-01-10T02:27:19.295Z,7.00
2019-01-10T02:29:46.647Z,6.90
2019-01-10T02:32:13.801Z,6.90
2019-01-10T02:34:41.314Z,6.90
2019-01-10T02:37:08.938Z,6.90
2019-01-10T02:39:36.292Z,6.90
2019-01-10T02:42:03.825Z,6.90
2019-01-10T02:44:31.004Z,6.90
2019-01-10T02:46:58.732Z,6.90
2019-01-10T02:49:27.230Z,6.90
2019-01-10T02:51:55.587Z,6.80
2019-01-10T02:54:22.821Z,6.90
2019-01-10T02:56:50.363Z,6.90
2019-01-10T02:59:18.206Z,6.90
2019-01-10T03:01:46.040Z,6.90
2019-01-10T03:04:13.451Z,7.00
2019-01-10T03:06:40.840Z,6.90
2019-01-10T03:09:08.771Z,6.90
2019-01-10T03:11:36.296Z,6.90
2019-01-10T03:14:04.345Z,6.90
2019-01-10T03:16:32.375Z,6.90
2019-01-10T03:19:00.185Z,6.90
2019-01-10T03:21:27.704Z,6.80
2019-01-10T03:23:55.353Z,6.80
2019-01-10T03:26:22.616Z,6.80
2019-01-10T03:28:49.652Z,6.90
2019-01-10T03:31:17.684Z,6.80
2019-01-10T03:33:45.902Z,6.70
2019-01-10T03:36:12.950Z,6.80
2019-01-10T03:38:40.900Z,6.90
2019-01-10T03:41:08.329Z,6.90
2019-01-10T03:43:35.494Z,6.90
2019-01-10T03:46:03.299Z,6.80
2019-01-10T03:48:32.080Z,6.80
2019-01-10T03:50:59.624Z,6.90
2019-01-10T03:53:28.264Z,6.90
2019-01-10T03:55:55.331Z,6.90
2019-01-10T03:58:23.482Z,6.80
2019-01-10T04:00:51.352Z,6.80
2019-01-10T04:03:19.321Z,6.80
2019-01-10T04:05:46.948Z,6.80
2019-01-10T04:08:14.687Z,6.90
2019-01-10T04:10:42.623Z,6.90
2019-01-10T04:13:10.191Z,6.90
2019-01-10T04:15:37.833Z,6.90
2019-01-10T04:18:04.975Z,6.90
2019-01-10T04:20:32.617Z,6.80
2019-01-10T04:23:00.151Z,6.90
2019-01-10T04:25:27.560Z,6.80
2019-01-10T04:27:55.074Z,6.90
2019-01-10T04:30:23.199Z,6.80
2019-01-10T04:32:50.658Z,6.70
2019-01-10T04:35:18.186Z,6.80
2019-01-10T04:37:46.064Z,6.80
2019-01-10T04:40:15.722Z,6.80
2019-01-10T04:42:43.197Z,6.80
2019-01-10T04:45:10.620Z,6.70
2019-01-10T04:47:38.575Z,6.70
2019-01-10T04:50:07.172Z,6.60
2019-01-10T04:52:34.317Z,6.60
2019-01-10T04:55:01.731Z,6.70
2019-01-10T04:57:28.645Z,6.60
2019-01-10T04:59:56.292Z,6.50
2019-01-10T05:02:23.587Z,6.60
2019-01-10T05:04:51.255Z,6.60
2019-01-10T05:07:20.165Z,6.60
2019-01-10T05:09:47.601Z,6.60
2019-01-10T05:12:16.125Z,6.70
2019-01-10T05:14:43.154Z,6.60
2019-01-10T05:17:10.744Z,6.60
2019-01-10T05:19:38.443Z,6.60
2019-01-10T05:22:06.350Z,6.70
2019-01-10T05:24:34.011Z,6.70
2019-01-10T05:27:01.783Z,6.70
2019-01-10T05:29:29.392Z,6.70
2019-01-10T05:31:56.939Z,6.60
2019-01-10T05:34:25.026Z,6.60
2019-01-10T05:36:52.484Z,6.60
2019-01-10T05:39:21.565Z,6.70
2019-01-10T05:41:48.865Z,6.60
2019-01-10T05:44:16.048Z,6.60
2019-01-10T05:46:48.613Z,6.60
2019-01-10T05:49:15.157Z,6.60
2019-01-10T05:51:42.724Z,6.70
2019-01-10T05:54:10.856Z,6.60
2019-01-10T05:56:38.448Z,6.60
2019-01-10T05:59:07.244Z,6.60
2019-01-10T06:01:35.020Z,6.60
2019-01-10T06:04:02.168Z,6.60
2019-01-10T06:06:30.107Z,6.60
2019-01-10T06:08:57.693Z,6.60
2019-01-10T06:11:26.760Z,6.60
2019-01-10T06:13:54.728Z,6.60
2019-01-10T06:16:22.450Z,6.60
2019-01-10T06:18:50.120Z,6.60
2019-01-10T06:21:18.101Z,6.60
2019-01-10T06:23:45.651Z,6.60
2019-01-10T06:26:13.664Z,6.60
2019-01-10T06:28:41.551Z,6.60
2019-01-10T06:31:11.179Z,6.50
2019-01-10T06:33:38.370Z,6.50
2019-01-10T06:36:05.500Z,6.50
2019-01-10T06:38:32.827Z,6.50
2019-01-10T06:41:00.532Z,6.50
2019-01-10T06:43:27.697Z,6.50
2019-01-10T06:45:55.256Z,6.50
2019-01-10T06:48:23.908Z,6.50
2019-01-10T06:50:51.652Z,6.60
2019-01-10T06:53:21.025Z,6.60
2019-01-10T06:55:49.316Z,6.60
2019-01-10T06:58:16.367Z,6.60
2019-01-10T07:00:43.560Z,6.60
2019-01-10T07:03:11.088Z,6.60
2019-01-10T07:05:39.931Z,6.50
2019-01-10T07:08:07.739Z,6.60
2019-01-10T07:10:35.527Z,6.60
2019-01-10T07:13:03.092Z,6.60
2019-01-10T07:15:31.661Z,6.60
2019-01-10T07:17:59.697Z,6.50
2019-01-10T07:20:26.804Z,6.60
2019-01-10T07:22:54.536Z,6.50
2019-01-10T07:25:21.732Z,6.50
2019-01-10T07:27:49.374Z,6.60
2019-01-10T07:30:19.176Z,6.50
2019-01-10T07:32:46.640Z,6.60
2019-01-10T07:35:14.427Z,6.60
2019-01-10T07:37:47.899Z,7.10
2019-01-10T07:40:16.124Z,6.70
2019-01-10T07:42:44.351Z,6.60
2019-01-10T07:45:15.188Z,6.60
2019-01-10T07:47:46.904Z,6.60
2019-01-10T07:50:15.199Z,6.60
2019-01-10T07:52:42.900Z,6.70
2019-01-10T07:55:10.681Z,6.70
2019-01-10T07:57:38.480Z,6.60
2019-01-10T08:00:07.127Z,6.60
2019-01-10T08:02:34.168Z,6.70
2019-01-10T08:05:01.877Z,6.70
2019-01-10T08:07:29.559Z,6.70
2019-01-10T08:09:56.938Z,6.70
2019-01-10T08:12:24.168Z,6.70
2019-01-10T08:14:52.063Z,6.70
2019-01-10T08:17:19.218Z,6.80
2019-01-10T08:19:46.744Z,6.70
2019-01-10T08:22:27.540Z,6.70
2019-01-10T08:24:47.708Z,6.10
2019-01-10T08:27:14.899Z,6.70
2019-01-10T08:29:42.359Z,6.80
2019-01-10T08:32:09.215Z,6.80
2019-01-10T08:34:37.659Z,6.70
2019-01-10T08:37:06.956Z,6.80
2019-01-10T08:39:34.131Z,6.80
2019-01-10T08:42:01.793Z,6.70
2019-01-10T08:44:30.354Z,6.80
2019-01-10T08:46:58.392Z,6.80
2019-01-10T08:49:27.115Z,6.80
2019-01-10T08:51:55.239Z,6.80
2019-01-10T08:54:22.127Z,6.80
2019-01-10T08:56:49.299Z,6.70
2019-01-10T08:59:16.878Z,6.70
2019-01-10T09:01:43.883Z,6.80
2019-01-10T09:04:11.559Z,6.90
2019-01-10T09:06:38.912Z,6.90
2019-01-10T09:09:08.102Z,6.90
2019-01-10T09:11:35.636Z,6.90
2019-01-10T09:14:04.739Z,6.90
2019-01-10T09:16:32.686Z,6.90
2019-01-10T09:18:59.950Z,6.90
2019-01-10T09:21:27.612Z,6.90
2019-01-10T09:23:55.706Z,6.90
2019-01-10T09:26:23.676Z,6.90
2019-01-10T09:28:50.794Z,6.90
2019-01-10T09:31:19.135Z,6.90
2019-01-10T09:33:46.355Z,7.00
2019-01-10T09:36:13.872Z,7.10
2019-01-10T09:38:40.985Z,7.10
2019-01-10T09:41:08.434Z,7.10
2019-01-10T09:43:36.071Z,7.10
2019-01-10T09:46:03.806Z,7.10
2019-01-10T09:48:31.439Z,7.10
2019-01-10T09:51:00.297Z,7.10
2019-01-10T09:53:28.371Z,7.20
2019-01-10T09:55:56.683Z,7.20
2019-01-10T09:58:26.061Z,7.20
2019-01-10T10:00:54.227Z,7.30
2019-01-10T10:03:21.651Z,7.30
2019-01-10T10:05:49.948Z,7.30
2019-01-10T10:08:17.612Z,7.30
2019-01-10T10:10:44.712Z,7.30
2019-01-10T10:13:12.108Z,7.50
2019-01-10T10:15:39.848Z,7.50
2019-01-10T10:18:07.748Z,7.50
2019-01-10T10:20:36.027Z,7.50
2019-01-10T10:23:03.835Z,7.50
2019-01-10T10:25:30.859Z,7.50
2019-01-10T10:27:59.780Z,7.40
2019-01-10T10:30:27.207Z,7.40
2019-01-10T10:32:54.921Z,7.40
2019-01-10T10:35:22.968Z,7.40
2019-01-10T10:37:50.566Z,7.30
2019-01-10T10:40:20.385Z,7.30
2019-01-10T10:42:48.706Z,7.30
2019-01-10T10:45:17.509Z,7.20
2019-01-10T10:47:45.247Z,7.30
2019-01-10T10:50:21.507Z,7.20
2019-01-10T10:52:49.324Z,7.20
2019-01-10T10:55:17.601Z,7.10
2019-01-10T10:57:45.352Z,7.10
2019-01-10T11:00:16.609Z,7.10
2019-01-10T11:02:44.629Z,7.20
2019-01-10T11:05:11.746Z,7.10
2019-01-10T11:07:39.413Z,7.10
2019-01-10T11:10:10.625Z,7.10
2019-01-10T11:12:38.127Z,7.10
2019-01-10T11:15:08.000Z,7.20
2019-01-10T11:17:36.931Z,7.10
2019-01-10T11:20:06.023Z,7.20
2019-01-10T11:22:33.705Z,7.10
2019-01-10T11:25:01.167Z,7.10
2019-01-10T11:27:28.841Z,7.10
2019-01-10T11:29:56.165Z,7.00
2019-01-10T11:32:23.908Z,7.00
2019-01-10T11:34:51.461Z,7.00
2019-01-10T11:37:20.134Z,6.90
2019-01-10T11:39:47.301Z,7.00
2019-01-10T11:42:14.520Z,7.10
2019-01-10T11:44:42.234Z,7.10
2019-01-10T11:47:10.117Z,7.00
2019-01-10T11:49:39.359Z,7.10
2019-01-10T11:52:06.856Z,7.10
2019-01-10T11:54:33.947Z,7.00
2019-01-10T11:57:01.412Z,7.10
2019-01-10T11:59:29.814Z,7.10
2019-01-10T12:01:57.030Z,7.10
2019-01-10T12:04:24.719Z,7.10
2019-01-10T12:06:53.080Z,7.00
2019-01-10T12:09:20.009Z,7.10
2019-01-10T12:11:47.581Z,7.10
2019-01-10T12:14:15.878Z,7.10
2019-01-10T12:16:43.317Z,7.10
2019-01-10T12:19:10.827Z,7.10
2019-01-10T12:21:39.790Z,7.00
2019-01-10T12:24:06.947Z,7.00
2019-01-10T12:26:34.021Z,7.00
2019-01-10T12:29:01.897Z,6.90
2019-01-10T12:31:28.980Z,7.00
2019-01-10T12:33:57.623Z,7.10
2019-01-10T12:36:24.888Z,7.10
2019-01-10T12:38:52.089Z,7.10
2019-01-10T12:41:20.301Z,7.10
2019-01-10T12:43:48.611Z,7.20
2019-01-10T12:46:16.751Z,7.20
2019-01-10T12:48:45.445Z,7.20
2019-01-10T12:51:12.659Z,7.20
2019-01-10T12:53:40.255Z,7.20
2019-01-10T12:56:08.211Z,7.20
2019-01-10T12:58:36.164Z,7.10
2019-01-10T13:01:04.115Z,7.00
2019-01-10T13:03:31.967Z,7.10
2019-01-10T13:05:59.289Z,7.00
2019-01-10T13:08:28.347Z,7.00
2019-01-10T13:10:56.303Z,7.00
2019-01-10T13:13:24.088Z,7.00
2019-01-10T13:15:51.827Z,7.10
2019-01-10T13:18:19.531Z,7.00
2019-01-10T13:20:46.867Z,7.00
2019-01-10T13:23:13.927Z,7.00
2019-01-10T13:25:41.984Z,7.00
2019-01-10T13:28:09.431Z,7.00
2019-01-10T13:30:36.667Z,7.00
2019-01-10T13:33:04.487Z,6.90
2019-01-10T13:35:31.976Z,7.00
2019-01-10T13:37:59.944Z,6.90
2019-01-10T13:40:28.065Z,6.90
2019-01-10T13:42:55.540Z,6.90
2019-01-10T13:45:23.205Z,7.00
2019-01-10T13:47:50.640Z,7.00
2019-01-10T13:50:21.704Z,7.00
2019-01-10T13:52:49.266Z,6.90
2019-01-10T13:55:16.941Z,6.90
2019-01-10T13:57:44.574Z,6.90
2019-01-10T14:00:17.755Z,6.90
2019-01-10T14:02:45.631Z,6.90
2019-01-10T14:05:13.400Z,6.90
2019-01-10T14:07:40.739Z,7.00
2019-01-10T14:10:08.888Z,7.00
2019-01-10T14:12:37.466Z,6.80
2019-01-10T14:15:06.692Z,6.80
2019-01-10T14:20:03.255Z,6.90
2019-01-10T14:22:30.275Z,6.90
2019-01-10T14:24:58.839Z,6.90
2019-01-10T14:27:26.356Z,6.90
2019-01-10T14:29:53.871Z,6.90
2019-01-10T14:32:21.156Z,6.90
2019-01-10T14:34:49.331Z,6.90
2019-01-10T14:37:16.536Z,6.80
2019-01-10T14:39:43.960Z,6.80
2019-01-10T14:42:11.512Z,6.80
2019-01-10T14:44:39.267Z,6.80
2019-01-10T14:47:07.744Z,6.80
2019-01-10T14:49:35.388Z,6.70
2019-01-10T14:52:03.106Z,6.70
2019-01-10T14:54:30.391Z,6.70
2019-01-10T14:56:58.221Z,6.70
2019-01-10T14:59:26.722Z,6.70
2019-01-10T15:01:53.878Z,6.70
2019-01-10T15:04:21.335Z,6.70
2019-01-10T15:06:48.839Z,6.70
2019-01-10T15:09:15.879Z,6.60
2019-01-10T15:11:42.979Z,6.60
2019-01-10T15:14:16.074Z,6.60
2019-01-10T15:16:40.000Z,6.70
2019-01-10T15:19:07.639Z,6.60
2019-01-10T15:21:35.706Z,6.60
2019-01-10T15:24:03.571Z,6.70
2019-01-10T15:26:30.840Z,6.70
2019-01-10T15:28:58.568Z,6.60
2019-01-10T15:31:25.652Z,6.60
2019-01-10T15:33:52.751Z,6.60
2019-01-10T15:36:20.717Z,6.50
2019-01-10T15:38:47.923Z,6.50
2019-01-10T15:41:15.055Z,6.50
2019-01-10T15:43:43.279Z,6.50
2019-01-10T15:46:11.997Z,6.50
2019-01-10T15:48:39.171Z,6.40
2019-01-10T15:51:07.022Z,6.30
2019-01-10T15:53:34.663Z,6.30
2019-01-10T15:56:02.099Z,6.20
2019-01-10T15:58:29.007Z,6.10
2019-01-10T16:00:56.117Z,6.20
2019-01-10T16:03:23.103Z,6.20
2019-01-10T16:05:50.201Z,6.20
2019-01-10T16:08:17.746Z,6.20
2019-01-10T16:10:44.939Z,6.10
2019-01-10T16:13:11.920Z,6.10
2019-01-10T16:15:38.953Z,6.10
2019-01-10T16:18:06.200Z,6.10
2019-01-10T16:20:33.211Z,6.20
2019-01-10T16:23:02.221Z,6.20
2019-01-10T16:25:29.348Z,6.20
2019-01-10T16:27:56.413Z,6.10
2019-01-10T16:30:27.290Z,6.20
2019-01-10T16:32:55.483Z,6.20
2019-01-10T16:35:23.444Z,6.10
2019-01-10T16:37:51.416Z,6.00
2019-01-10T16:40:18.475Z,6.00
2019-01-10T16:42:45.820Z,6.00
2019-01-10T16:45:18.700Z,6.00
2019-01-10T16:47:47.570Z,6.00
2019-01-10T16:50:16.137Z,5.90
2019-01-10T16:52:44.475Z,6.00
2019-01-10T16:55:11.742Z,5.90
2019-01-10T16:57:40.983Z,5.90
2019-01-10T17:00:21.064Z,5.90
2019-01-10T17:02:48.687Z,5.90
2019-01-10T17:05:15.813Z,5.80
2019-01-10T17:07:43.838Z,5.80
2019-01-10T17:10:11.261Z,5.80
2019-01-10T17:12:38.871Z,5.80
2019-01-10T17:15:07.637Z,5.80
2019-01-10T17:17:37.757Z,5.70
2019-01-10T17:20:07.999Z,5.70
2019-01-10T17:22:35.035Z,5.70
2019-01-10T17:25:03.231Z,5.60
2019-01-10T17:27:30.644Z,5.60
2019-01-10T17:29:57.671Z,5.60
2019-01-10T17:32:24.784Z,5.60
2019-01-10T17:34:52.631Z,5.60
2019-01-10T17:37:19.631Z,5.70
2019-01-10T17:39:47.251Z,5.60
2019-01-10T17:42:15.044Z,5.60
2019-01-10T17:44:42.600Z,5.70
2019-01-10T17:47:10.262Z,5.70
2019-01-10T17:49:38.188Z,5.70
2019-01-10T17:52:06.859Z,5.70
2019-01-10T17:54:35.516Z,5.70
2019-01-10T17:57:02.634Z,5.60
2019-01-10T17:59:29.878Z,5.70
2019-01-10T18:01:57.000Z,5.70
2019-01-10T18:04:25.126Z,5.80
2019-01-10T18:06:52.413Z,5.80
2019-01-10T18:09:20.539Z,5.60
2019-01-10T18:11:49.410Z,5.50
2019-01-10T18:14:17.443Z,5.50
2019-01-10T18:16:44.583Z,5.60
2019-01-10T18:19:13.080Z,5.50
2019-01-10T18:21:50.984Z,5.50
2019-01-10T18:24:21.123Z,5.50
2019-01-10T18:26:48.320Z,5.50
2019-01-10T18:29:15.748Z,5.50
2019-01-10T18:31:42.839Z,5.40
2019-01-10T18:34:10.268Z,5.40
2019-01-10T18:36:37.368Z,5.40
2019-01-10T18:39:08.031Z,5.40
2019-01-10T18:41:37.306Z,5.40
2019-01-10T18:44:04.999Z,5.40
2019-01-10T18:46:32.443Z,5.40
2019-01-10T18:48:59.864Z,5.50
2019-01-10T18:51:27.091Z,5.60
2019-01-10T18:53:56.292Z,5.50
2019-01-10T18:56:24.079Z,5.50
2019-01-10T18:58:54.633Z,5.60
2019-01-10T19:01:24.064Z,5.60
2019-01-10T19:03:53.746Z,5.60
2019-01-10T19:06:21.248Z,5.60
2019-01-10T19:08:48.807Z,5.60
2019-01-10T19:11:16.847Z,5.50
2019-01-10T19:13:44.047Z,5.50
2019-01-10T19:16:12.196Z,5.50
2019-01-10T19:18:39.631Z,5.50
2019-01-10T19:21:07.049Z,5.50
2019-01-10T19:23:34.734Z,5.50
2019-01-10T19:26:02.463Z,5.50
2019-01-10T19:28:30.847Z,5.60
2019-01-10T19:31:00.152Z,5.60
2019-01-10T19:33:27.279Z,5.60
2019-01-10T19:35:55.795Z,5.60
2019-01-10T19:38:27.337Z,5.50
2019-01-10T19:40:57.145Z,5.40
2019-01-10T19:43:25.435Z,5.40
2019-01-10T19:45:52.708Z,5.50
2019-01-10T19:48:21.315Z,5.50
2019-01-10T19:50:49.332Z,5.50
2019-01-10T19:53:16.864Z,5.60
2019-01-10T19:55:47.244Z,5.60
2019-01-10T19:58:16.661Z,5.60
2019-01-10T20:00:48.944Z,5.50
2019-01-10T20:03:16.844Z,5.60
2019-01-10T20:05:44.261Z,5.60
2019-01-10T20:08:11.366Z,5.60
2019-01-10T20:10:40.785Z,5.50
2019-01-10T20:13:08.588Z,5.60
2019-01-10T20:15:36.047Z,5.60
2019-01-10T20:18:03.983Z,5.60
2019-01-10T20:20:33.547Z,5.60
2019-01-10T20:23:00.917Z,5.60
2019-01-10T20:25:30.518Z,5.50
2019-01-10T20:27:59.461Z,5.50
2019-01-10T20:30:29.144Z,5.50
2019-01-10T20:32:58.612Z,5.50
2019-01-10T20:35:28.395Z,5.40
2019-01-10T20:37:56.928Z,5.40
2019-01-10T20:40:26.600Z,5.40
2019-01-10T20:42:56.841Z,5.40
2019-01-10T20:45:27.150Z,5.40
2019-01-10T20:47:54.640Z,5.40
2019-01-10T20:50:22.268Z,5.40
2019-01-10T20:52:49.889Z,5.40
2019-01-10T20:55:18.670Z,5.40
2019-01-10T20:57:47.507Z,5.10
2019-01-10T21:00:17.267Z,5.40
2019-01-10T21:02:47.290Z,5.40
2019-01-10T21:05:16.224Z,5.40
2019-01-10T21:07:46.408Z,5.40
2019-01-10T21:10:14.859Z,5.60
2019-01-10T21:12:44.332Z,5.60
2019-01-10T21:15:14.791Z,5.50
2019-01-10T21:17:43.881Z,5.50
2019-01-10T21:20:11.884Z,5.60
2019-01-10T21:22:40.379Z,5.40
2019-01-10T21:25:08.868Z,5.50
2019-01-10T21:27:36.527Z,5.50
2019-01-10T21:30:06.627Z,5.50
2019-01-10T21:32:34.276Z,5.50
2019-01-10T21:35:03.855Z,5.50
2019-01-10T21:37:31.311Z,5.50
2019-01-10T21:39:58.997Z,5.50
2019-01-10T21:42:26.312Z,5.40
2019-01-10T21:44:53.576Z,5.50
2019-01-10T21:47:21.083Z,5.50
2019-01-10T21:49:48.495Z,5.50
2019-01-10T21:52:16.328Z,5.50
2019-01-10T21:54:44.789Z,5.40
2019-01-10T21:57:12.343Z,5.40
2019-01-10T21:59:39.867Z,5.50
2019-01-10T22:02:07.408Z,5.50
2019-01-10T22:04:34.405Z,5.40
2019-01-10T22:07:01.804Z,5.50
2019-01-10T22:09:28.868Z,5.50
2019-01-10T22:11:56.521Z,5.50
2019-01-10T22:14:24.316Z,5.60
2019-01-10T22:16:51.928Z,5.50
2019-01-10T22:19:19.200Z,5.50
2019-01-10T22:21:47.656Z,5.50
2019-01-10T22:24:15.595Z,5.40
2019-01-10T22:26:42.802Z,5.40
2019-01-10T22:29:10.242Z,5.40
2019-01-10T22:31:37.508Z,5.30
2019-01-10T22:34:04.636Z,5.40
2019-01-10T22:36:33.047Z,5.50
2019-01-10T22:39:02.772Z,5.50
2019-01-10T22:41:30.456Z,5.40
2019-01-10T22:43:57.588Z,5.40
2019-01-10T22:46:24.939Z,5.50
2019-01-10T22:48:53.616Z,5.50
2019-01-10T22:51:20.964Z,5.40
2019-01-10T22:53:49.583Z,5.50
2019-01-10T22:56:17.176Z,5.40
2019-01-10T22:58:44.954Z,5.50
2019-01-10T23:01:31.740Z,5.50
2019-01-10T23:03:59.587Z,5.50
2019-01-10T23:06:27.064Z,5.50
2019-01-10T23:08:54.681Z,5.40
2019-01-10T23:11:23.091Z,5.50
2019-01-10T23:14:00.800Z,5.50
2019-01-10T23:16:29.263Z,5.40
2019-01-10T23:18:56.377Z,5.40
2019-01-10T23:21:23.875Z,5.30
2019-01-10T23:24:02.323Z,5.30
2019-01-10T23:26:30.443Z,5.30
2019-01-10T23:28:57.716Z,5.40
2019-01-10T23:31:25.617Z,5.40
2019-01-10T23:33:53.739Z,5.30
2019-01-10T23:36:21.419Z,5.40
2019-01-10T23:39:10.647Z,5.40
2019-01-10T23:41:38.320Z,5.40
2019-01-10T23:44:05.987Z,5.40
2019-01-10T23:46:33.461Z,5.30
2019-01-10T23:49:01.740Z,5.60
2019-01-10T23:51:29.684Z,6.40
2019-01-10T23:53:57.317Z,5.30
2019-01-10T23:56:25.649Z,5.30
2019-01-10T23:58:53.105Z,5.40
